sensor_id;sensor_type;location;lat;lon;timestamp;pressure;altitude;pressure_sealevel;temperature;humidity
44297;BME280;51842;47.450;8.654;2023-05-19T00:02:18;95768.53;;;9.38;83.38
44297;BME280;51842;47.450;8.654;2023-05-19T00:04:45;95770.91;;;9.39;82.86
44297;BME280;51842;47.450;8.654;2023-05-19T00:07:17;95766.72;;;9.43;84.33
44297;BME280;51842;47.450;8.654;2023-05-19T00:09:44;95772.56;;;9.45;84.43
44297;BME280;51842;47.450;8.654;2023-05-19T00:12:11;95773.69;;;9.49;83.42
44297;BME280;51842;47.450;8.654;2023-05-19T00:14:38;95771.03;;;9.49;84.08
44297;BME280;51842;47.450;8.654;2023-05-19T00:17:04;95773.94;;;9.48;84.90
44297;BME280;51842;47.450;8.654;2023-05-19T00:19:30;95770.47;;;9.47;83.66
44297;BME280;51842;47.450;8.654;2023-05-19T00:21:57;95763.22;;;9.43;84.54
44297;BME280;51842;47.450;8.654;2023-05-19T00:24:23;95760.78;;;9.36;84.66
44297;BME280;51842;47.450;8.654;2023-05-19T00:26:49;95756.25;;;9.37;85.45
44297;BME280;51842;47.450;8.654;2023-05-19T00:29:15;95750.66;;;9.33;85.59
44297;BME280;51842;47.450;8.654;2023-05-19T00:31:43;95749.13;;;9.37;84.84
44297;BME280;51842;47.450;8.654;2023-05-19T00:34:09;95754.94;;;9.34;84.87
44297;BME280;51842;47.450;8.654;2023-05-19T00:36:35;95747.75;;;9.35;85.26
44297;BME280;51842;47.450;8.654;2023-05-19T00:39:00;95750.94;;;9.37;84.66
44297;BME280;51842;47.450;8.654;2023-05-19T00:41:27;95749.41;;;9.41;84.67
44297;BME280;51842;47.450;8.654;2023-05-19T00:43:54;95748.06;;;9.38;84.84
44297;BME280;51842;47.450;8.654;2023-05-19T00:46:20;95740.31;;;9.37;84.83
44297;BME280;51842;47.450;8.654;2023-05-19T00:48:47;95742.94;;;9.32;84.76
44297;BME280;51842;47.450;8.654;2023-05-19T00:51:13;95739.00;;;9.34;85.34
44297;BME280;51842;47.450;8.654;2023-05-19T00:53:42;95732.56;;;9.30;84.36
44297;BME280;51842;47.450;8.654;2023-05-19T00:56:13;95724.34;;;9.32;84.08
44297;BME280;51842;47.450;8.654;2023-05-19T00:58:41;95730.75;;;9.36;83.91
44297;BME280;51842;47.450;8.654;2023-05-19T01:01:07;95737.63;;;9.32;83.88
44297;BME280;51842;47.450;8.654;2023-05-19T01:03:34;95727.50;;;9.29;84.57
44297;BME280;51842;47.450;8.654;2023-05-19T01:06:04;95724.56;;;9.30;83.90
44297;BME280;51842;47.450;8.654;2023-05-19T01:08:36;95721.13;;;9.30;84.20
44297;BME280;51842;47.450;8.654;2023-05-19T01:11:06;95715.22;;;9.22;84.08
44297;BME280;51842;47.450;8.654;2023-05-19T01:13:34;95720.59;;;9.27;84.73
44297;BME280;51842;47.450;8.654;2023-05-19T01:31:29;95720.53;;;9.22;84.41
44297;BME280;51842;47.450;8.654;2023-05-19T01:33:56;95714.72;;;9.25;84.64
44297;BME280;51842;47.450;8.654;2023-05-19T01:36:25;95718.16;;;9.26;84.81
44297;BME280;51842;47.450;8.654;2023-05-19T01:38:59;95721.91;;;9.25;84.87
44297;BME280;51842;47.450;8.654;2023-05-19T01:41:26;95724.00;;;9.23;85.05
44297;BME280;51842;47.450;8.654;2023-05-19T01:43:55;95718.69;;;9.23;85.08
44297;BME280;51842;47.450;8.654;2023-05-19T01:46:23;95725.56;;;9.19;84.65
44297;BME280;51842;47.450;8.654;2023-05-19T01:48:49;95727.22;;;9.25;84.72
44297;BME280;51842;47.450;8.654;2023-05-19T01:51:16;95727.50;;;9.29;84.51
44297;BME280;51842;47.450;8.654;2023-05-19T01:53:42;95725.13;;;9.32;84.86
44297;BME280;51842;47.450;8.654;2023-05-19T01:56:07;95725.94;;;9.33;85.62
44297;BME280;51842;47.450;8.654;2023-05-19T01:58:47;95725.91;;;9.27;85.05
44297;BME280;51842;47.450;8.654;2023-05-19T02:02:20;95732.25;;;9.26;84.81
44297;BME280;51842;47.450;8.654;2023-05-19T02:04:58;95730.41;;;9.27;84.77
44297;BME280;51842;47.450;8.654;2023-05-19T02:07:57;95730.41;;;9.27;84.64
44297;BME280;51842;47.450;8.654;2023-05-19T02:10:29;95724.56;;;9.30;84.77
44297;BME280;51842;47.450;8.654;2023-05-19T02:13:00;95730.97;;;9.29;85.07
44297;BME280;51842;47.450;8.654;2023-05-19T02:15:38;95729.81;;;9.20;85.26
44297;BME280;51842;47.450;8.654;2023-05-19T02:18:05;95727.91;;;9.15;86.03
44297;BME280;51842;47.450;8.654;2023-05-19T02:20:34;95718.78;;;9.06;85.84
44297;BME280;51842;47.450;8.654;2023-05-19T02:23:00;95722.84;;;9.14;85.90
44297;BME280;51842;47.450;8.654;2023-05-19T02:25:25;95722.28;;;9.12;86.06
44297;BME280;51842;47.450;8.654;2023-05-19T02:27:51;95720.13;;;9.09;86.32
44297;BME280;51842;47.450;8.654;2023-05-19T02:30:17;95719.59;;;9.07;86.31
44297;BME280;51842;47.450;8.654;2023-05-19T02:32:43;95717.66;;;9.02;86.40
44297;BME280;51842;47.450;8.654;2023-05-19T02:35:12;95717.44;;;9.03;86.88
44297;BME280;51842;47.450;8.654;2023-05-19T02:37:37;95717.38;;;8.98;87.29
44297;BME280;51842;47.450;8.654;2023-05-19T02:40:05;95715.22;;;8.95;87.22
44297;BME280;51842;47.450;8.654;2023-05-19T02:42:31;95703.00;;;8.94;87.58
44297;BME280;51842;47.450;8.654;2023-05-19T02:44:56;95716.50;;;8.93;87.41
44297;BME280;51842;47.450;8.654;2023-05-19T02:47:22;95708.03;;;8.96;87.55
44297;BME280;51842;47.450;8.654;2023-05-19T02:49:48;95704.38;;;9.02;87.14
44297;BME280;51842;47.450;8.654;2023-05-19T02:52:13;95705.16;;;8.97;87.47
44297;BME280;51842;47.450;8.654;2023-05-19T02:54:39;95703.56;;;8.96;87.46
44297;BME280;51842;47.450;8.654;2023-05-19T02:57:05;95700.28;;;8.89;87.52
44297;BME280;51842;47.450;8.654;2023-05-19T02:59:31;95706.16;;;8.91;88.19
44297;BME280;51842;47.450;8.654;2023-05-19T03:02:01;95704.78;;;8.89;88.17
44297;BME280;51842;47.450;8.654;2023-05-19T03:04:28;95700.47;;;8.83;88.54
44297;BME280;51842;47.450;8.654;2023-05-19T03:06:54;95701.25;;;8.78;88.51
44297;BME280;51842;47.450;8.654;2023-05-19T03:09:20;95700.69;;;8.76;88.74
44297;BME280;51842;47.450;8.654;2023-05-19T03:11:46;95701.53;;;8.82;88.80
44297;BME280;51842;47.450;8.654;2023-05-19T03:14:11;95698.03;;;8.76;88.88
44297;BME280;51842;47.450;8.654;2023-05-19T03:16:40;95704.44;;;8.80;88.63
44297;BME280;51842;47.450;8.654;2023-05-19T03:19:07;95703.09;;;8.77;88.73
44297;BME280;51842;47.450;8.654;2023-05-19T03:21:33;95703.78;;;8.68;89.08
44297;BME280;51842;47.450;8.654;2023-05-19T03:24:02;95700.09;;;8.69;89.28
44297;BME280;51842;47.450;8.654;2023-05-19T03:26:28;95707.56;;;8.72;89.42
44297;BME280;51842;47.450;8.654;2023-05-19T03:28:54;95705.44;;;8.74;89.16
44297;BME280;51842;47.450;8.654;2023-05-19T03:31:20;95700.13;;;8.74;89.31
44297;BME280;51842;47.450;8.654;2023-05-19T03:33:45;95699.81;;;8.70;89.44
44297;BME280;51842;47.450;8.654;2023-05-19T03:36:11;95705.63;;;8.67;89.54
44297;BME280;51842;47.450;8.654;2023-05-19T03:38:37;95704.84;;;8.67;89.59
44297;BME280;51842;47.450;8.654;2023-05-19T03:41:03;95705.34;;;8.64;90.02
44297;BME280;51842;47.450;8.654;2023-05-19T03:43:29;95702.88;;;8.57;90.23
44297;BME280;51842;47.450;8.654;2023-05-19T03:45:55;95701.22;;;8.51;90.78
44297;BME280;51842;47.450;8.654;2023-05-19T03:48:21;95709.97;;;8.51;90.99
44297;BME280;51842;47.450;8.654;2023-05-19T03:50:46;95717.13;;;8.51;90.93
44297;BME280;51842;47.450;8.654;2023-05-19T03:53:13;95715.53;;;8.50;91.13
44297;BME280;51842;47.450;8.654;2023-05-19T03:55:38;95716.53;;;8.44;91.37
44297;BME280;51842;47.450;8.654;2023-05-19T03:58:04;95712.25;;;8.43;91.67
44297;BME280;51842;47.450;8.654;2023-05-19T04:00:32;95717.25;;;8.39;91.74
44297;BME280;51842;47.450;8.654;2023-05-19T04:02:58;95711.59;;;8.35;92.05
44297;BME280;51842;47.450;8.654;2023-05-19T04:05:24;95714.75;;;8.32;92.41
44297;BME280;51842;47.450;8.654;2023-05-19T04:07:50;95707.06;;;8.31;92.56
44297;BME280;51842;47.450;8.654;2023-05-19T04:10:16;95708.56;;;8.27;93.18
44297;BME280;51842;47.450;8.654;2023-05-19T04:12:41;95712.28;;;8.26;93.31
44297;BME280;51842;47.450;8.654;2023-05-19T04:15:08;95711.91;;;8.17;93.80
44297;BME280;51842;47.450;8.654;2023-05-19T04:17:36;95717.53;;;8.21;93.95
44297;BME280;51842;47.450;8.654;2023-05-19T04:20:02;95715.13;;;8.19;94.10
44297;BME280;51842;47.450;8.654;2023-05-19T04:22:30;95721.50;;;8.18;94.14
44297;BME280;51842;47.450;8.654;2023-05-19T04:24:56;95722.59;;;8.22;94.09
44297;BME280;51842;47.450;8.654;2023-05-19T04:27:22;95720.94;;;8.16;94.60
44297;BME280;51842;47.450;8.654;2023-05-19T04:29:48;95728.69;;;8.23;93.95
44297;BME280;51842;47.450;8.654;2023-05-19T04:32:14;95725.00;;;8.24;93.97
44297;BME280;51842;47.450;8.654;2023-05-19T04:34:42;95721.84;;;8.27;94.23
44297;BME280;51842;47.450;8.654;2023-05-19T04:37:12;95728.81;;;8.33;94.09
44297;BME280;51842;47.450;8.654;2023-05-19T04:39:39;95732.03;;;8.35;94.27
44297;BME280;51842;47.450;8.654;2023-05-19T04:42:08;95734.53;;;8.42;94.10
44297;BME280;51842;47.450;8.654;2023-05-19T04:44:38;95730.97;;;8.53;93.55
44297;BME280;51842;47.450;8.654;2023-05-19T04:47:07;95734.72;;;8.57;93.20
44297;BME280;51842;47.450;8.654;2023-05-19T04:49:34;95732.69;;;8.64;92.93
44297;BME280;51842;47.450;8.654;2023-05-19T04:52:08;95735.13;;;8.71;92.57
44297;BME280;51842;47.450;8.654;2023-05-19T04:54:38;95735.78;;;8.78;92.72
44297;BME280;51842;47.450;8.654;2023-05-19T04:57:04;95742.25;;;8.87;91.77
44297;BME280;51842;47.450;8.654;2023-05-19T04:59:30;95737.75;;;8.88;91.48
44297;BME280;51842;47.450;8.654;2023-05-19T05:01:56;95742.28;;;8.92;91.34
44297;BME280;51842;47.450;8.654;2023-05-19T05:04:22;95738.41;;;9.00;90.60
44297;BME280;51842;47.450;8.654;2023-05-19T05:06:48;95739.63;;;8.92;90.21
44297;BME280;51842;47.450;8.654;2023-05-19T05:09:15;95744.53;;;9.06;90.56
44297;BME280;51842;47.450;8.654;2023-05-19T05:11:42;95741.38;;;9.09;89.97
44297;BME280;51842;47.450;8.654;2023-05-19T05:14:09;95741.09;;;9.05;89.97
44297;BME280;51842;47.450;8.654;2023-05-19T05:16:35;95741.44;;;9.14;89.96
44297;BME280;51842;47.450;8.654;2023-05-19T05:19:02;95740.94;;;9.17;89.10
44297;BME280;51842;47.450;8.654;2023-05-19T05:21:28;95744.88;;;9.09;90.62
44297;BME280;51842;47.450;8.654;2023-05-19T05:23:54;95733.81;;;9.22;89.37
44297;BME280;51842;47.450;8.654;2023-05-19T05:26:21;95739.13;;;9.22;89.09
44297;BME280;51842;47.450;8.654;2023-05-19T05:28:48;95742.19;;;9.36;88.70
44297;BME280;51842;47.450;8.654;2023-05-19T05:31:14;95739.00;;;9.39;88.12
44297;BME280;51842;47.450;8.654;2023-05-19T05:33:41;95737.72;;;9.15;88.68
44297;BME280;51842;47.450;8.654;2023-05-19T05:36:07;95737.03;;;9.24;88.90
44297;BME280;51842;47.450;8.654;2023-05-19T05:38:33;95739.34;;;9.16;88.83
44297;BME280;51842;47.450;8.654;2023-05-19T05:40:59;95735.13;;;9.20;87.96
44297;BME280;51842;47.450;8.654;2023-05-19T05:43:27;95736.94;;;9.14;88.35
44297;BME280;51842;47.450;8.654;2023-05-19T05:45:53;95738.06;;;9.23;88.27
44297;BME280;51842;47.450;8.654;2023-05-19T05:48:19;95744.31;;;9.34;86.64
44297;BME280;51842;47.450;8.654;2023-05-19T05:50:45;95738.88;;;9.24;87.22
44297;BME280;51842;47.450;8.654;2023-05-19T05:53:18;95745.09;;;9.35;86.66
44297;BME280;51842;47.450;8.654;2023-05-19T05:55:47;95734.25;;;9.41;86.63
44297;BME280;51842;47.450;8.654;2023-05-19T05:58:13;95739.81;;;9.40;85.94
44297;BME280;51842;47.450;8.654;2023-05-19T06:00:43;95733.47;;;9.46;85.32
44297;BME280;51842;47.450;8.654;2023-05-19T06:03:10;95734.03;;;9.48;85.38
44297;BME280;51842;47.450;8.654;2023-05-19T06:05:36;95735.94;;;9.53;85.03
44297;BME280;51842;47.450;8.654;2023-05-19T06:08:03;95739.41;;;9.53;84.41
44297;BME280;51842;47.450;8.654;2023-05-19T06:10:29;95741.78;;;9.49;84.42
44297;BME280;51842;47.450;8.654;2023-05-19T06:12:54;95742.56;;;9.50;85.04
44297;BME280;51842;47.450;8.654;2023-05-19T06:15:21;95729.00;;;9.46;85.31
44297;BME280;51842;47.450;8.654;2023-05-19T06:17:47;95738.09;;;9.56;85.03
44297;BME280;51842;47.450;8.654;2023-05-19T06:20:13;95734.22;;;9.68;84.33
44297;BME280;51842;47.450;8.654;2023-05-19T06:22:39;95739.31;;;9.75;83.82
44297;BME280;51842;47.450;8.654;2023-05-19T06:25:05;95746.44;;;9.69;82.49
44297;BME280;51842;47.450;8.654;2023-05-19T06:27:34;95739.50;;;9.63;83.77
44297;BME280;51842;47.450;8.654;2023-05-19T06:29:59;95744.06;;;9.73;83.54
44297;BME280;51842;47.450;8.654;2023-05-19T06:32:25;95734.66;;;9.60;83.53
44297;BME280;51842;47.450;8.654;2023-05-19T06:34:51;95737.16;;;9.72;83.56
44297;BME280;51842;47.450;8.654;2023-05-19T06:37:23;95740.91;;;9.76;83.34
44297;BME280;51842;47.450;8.654;2023-05-19T06:39:52;95745.22;;;9.82;83.50
44297;BME280;51842;47.450;8.654;2023-05-19T06:42:19;95746.06;;;9.88;82.47
44297;BME280;51842;47.450;8.654;2023-05-19T06:44:50;95747.19;;;9.65;84.73
44297;BME280;51842;47.450;8.654;2023-05-19T06:47:16;95757.13;;;9.75;83.39
44297;BME280;51842;47.450;8.654;2023-05-19T06:49:46;95750.34;;;9.57;83.79
44297;BME280;51842;47.450;8.654;2023-05-19T06:52:15;95753.06;;;9.67;83.92
44297;BME280;51842;47.450;8.654;2023-05-19T06:54:41;95752.34;;;9.77;83.19
44297;BME280;51842;47.450;8.654;2023-05-19T06:57:07;95745.94;;;9.72;83.10
44297;BME280;51842;47.450;8.654;2023-05-19T06:59:33;95749.84;;;9.60;83.76
44297;BME280;51842;47.450;8.654;2023-05-19T07:01:58;95757.03;;;9.64;84.18
44297;BME280;51842;47.450;8.654;2023-05-19T07:04:26;95753.50;;;9.54;84.02
44297;BME280;51842;47.450;8.654;2023-05-19T07:06:52;95756.59;;;9.72;83.66
44297;BME280;51842;47.450;8.654;2023-05-19T07:09:18;95755.81;;;9.77;83.58
44297;BME280;51842;47.450;8.654;2023-05-19T07:11:43;95755.28;;;9.75;82.81
44297;BME280;51842;47.450;8.654;2023-05-19T07:14:09;95758.97;;;9.74;83.82
44297;BME280;51842;47.450;8.654;2023-05-19T07:16:35;95754.75;;;9.78;83.29
44297;BME280;51842;47.450;8.654;2023-05-19T07:19:00;95759.53;;;9.76;83.08
44297;BME280;51842;47.450;8.654;2023-05-19T07:21:26;95756.00;;;9.65;83.75
44297;BME280;51842;47.450;8.654;2023-05-19T07:23:52;95763.53;;;9.79;82.87
44297;BME280;51842;47.450;8.654;2023-05-19T07:26:17;95754.44;;;9.69;83.24
44297;BME280;51842;47.450;8.654;2023-05-19T07:28:43;95753.13;;;9.77;83.68
44297;BME280;51842;47.450;8.654;2023-05-19T07:31:09;95756.91;;;9.81;83.31
44297;BME280;51842;47.450;8.654;2023-05-19T07:33:35;95758.06;;;9.90;83.54
44297;BME280;51842;47.450;8.654;2023-05-19T07:36:01;95751.91;;;9.90;82.91
44297;BME280;51842;47.450;8.654;2023-05-19T07:38:26;95753.53;;;9.96;82.84
44297;BME280;51842;47.450;8.654;2023-05-19T07:40:53;95745.31;;;9.98;82.83
44297;BME280;51842;47.450;8.654;2023-05-19T07:43:19;95754.94;;;10.04;82.70
44297;BME280;51842;47.450;8.654;2023-05-19T07:45:44;95752.28;;;10.04;82.88
44297;BME280;51842;47.450;8.654;2023-05-19T07:48:10;95756.81;;;10.08;82.68
44297;BME280;51842;47.450;8.654;2023-05-19T07:50:36;95756.31;;;10.11;83.04
44297;BME280;51842;47.450;8.654;2023-05-19T07:53:02;95751.53;;;10.13;82.49
44297;BME280;51842;47.450;8.654;2023-05-19T07:55:27;95752.59;;;10.12;81.97
44297;BME280;51842;47.450;8.654;2023-05-19T07:57:53;95759.28;;;10.20;81.65
44297;BME280;51842;47.450;8.654;2023-05-19T08:00:19;95759.84;;;10.22;81.79
44297;BME280;51842;47.450;8.654;2023-05-19T08:02:45;95758.22;;;10.21;81.96
44297;BME280;51842;47.450;8.654;2023-05-19T08:05:11;95768.16;;;10.31;81.87
44297;BME280;51842;47.450;8.654;2023-05-19T08:07:36;95760.25;;;10.41;81.07
44297;BME280;51842;47.450;8.654;2023-05-19T08:10:03;95753.59;;;10.44;80.78
44297;BME280;51842;47.450;8.654;2023-05-19T08:12:28;95755.97;;;10.40;81.42
44297;BME280;51842;47.450;8.654;2023-05-19T08:14:54;95752.50;;;10.39;81.39
44297;BME280;51842;47.450;8.654;2023-05-19T08:17:20;95749.56;;;10.36;81.09
44297;BME280;51842;47.450;8.654;2023-05-19T08:19:46;95748.00;;;10.45;81.17
44297;BME280;51842;47.450;8.654;2023-05-19T08:22:12;95747.22;;;10.50;80.28
44297;BME280;51842;47.450;8.654;2023-05-19T08:24:38;95756.06;;;10.60;80.22
44297;BME280;51842;47.450;8.654;2023-05-19T08:27:06;95750.97;;;10.59;80.26
44297;BME280;51842;47.450;8.654;2023-05-19T08:29:31;95750.53;;;10.77;79.44
44297;BME280;51842;47.450;8.654;2023-05-19T08:31:57;95740.66;;;10.78;78.41
44297;BME280;51842;47.450;8.654;2023-05-19T08:34:23;95731.59;;;10.74;79.09
44297;BME280;51842;47.450;8.654;2023-05-19T08:36:49;95738.28;;;10.76;79.21
44297;BME280;51842;47.450;8.654;2023-05-19T08:39:15;95735.63;;;10.86;78.78
44297;BME280;51842;47.450;8.654;2023-05-19T08:41:43;95729.50;;;10.76;78.96
44297;BME280;51842;47.450;8.654;2023-05-19T08:44:09;95731.81;;;10.62;78.60
44297;BME280;51842;47.450;8.654;2023-05-19T08:46:35;95736.56;;;10.50;80.33
44297;BME280;51842;47.450;8.654;2023-05-19T08:49:10;95735.59;;;10.71;79.52
44297;BME280;51842;47.450;8.654;2023-05-19T08:52:01;95728.13;;;10.68;79.41
44297;BME280;51842;47.450;8.654;2023-05-19T08:54:42;95731.03;;;10.61;80.02
44297;BME280;51842;47.450;8.654;2023-05-19T08:57:11;95735.31;;;10.68;79.68
44297;BME280;51842;47.450;8.654;2023-05-19T08:59:39;95736.63;;;10.65;79.13
44297;BME280;51842;47.450;8.654;2023-05-19T09:02:08;95731.31;;;10.70;79.51
44297;BME280;51842;47.450;8.654;2023-05-19T09:04:36;95727.41;;;10.88;79.18
44297;BME280;51842;47.450;8.654;2023-05-19T09:07:03;95734.06;;;10.96;78.52
44297;BME280;51842;47.450;8.654;2023-05-19T09:09:29;95733.31;;;11.16;77.98
44297;BME280;51842;47.450;8.654;2023-05-19T09:11:55;95730.31;;;10.97;77.26
44297;BME280;51842;47.450;8.654;2023-05-19T09:14:21;95726.81;;;10.76;79.14
44297;BME280;51842;47.450;8.654;2023-05-19T09:16:47;95724.16;;;10.81;78.82
44297;BME280;51842;47.450;8.654;2023-05-19T09:19:16;95732.44;;;10.84;79.07
44297;BME280;51842;47.450;8.654;2023-05-19T09:21:42;95731.97;;;11.08;77.74
44297;BME280;51842;47.450;8.654;2023-05-19T09:24:10;95723.44;;;11.21;75.97
44297;BME280;51842;47.450;8.654;2023-05-19T09:26:41;95715.72;;;11.20;76.84
44297;BME280;51842;47.450;8.654;2023-05-19T09:29:12;95733.28;;;11.05;76.12
44297;BME280;51842;47.450;8.654;2023-05-19T09:31:38;95728.75;;;11.06;77.05
44297;BME280;51842;47.450;8.654;2023-05-19T09:34:10;95724.53;;;11.30;75.61
44297;BME280;51842;47.450;8.654;2023-05-19T09:36:39;95725.03;;;11.12;76.50
44297;BME280;51842;47.450;8.654;2023-05-19T09:39:16;95723.72;;;11.40;75.68
44297;BME280;51842;47.450;8.654;2023-05-19T09:41:42;95712.78;;;11.47;75.58
44297;BME280;51842;47.450;8.654;2023-05-19T09:46:51;95727.47;;;11.80;74.09
44297;BME280;51842;47.450;8.654;2023-05-19T09:49:26;95728.00;;;11.72;74.83
44297;BME280;51842;47.450;8.654;2023-05-19T09:51:58;95729.34;;;11.90;73.42
44297;BME280;51842;47.450;8.654;2023-05-19T09:54:25;95737.88;;;12.17;72.33
44297;BME280;51842;47.450;8.654;2023-05-19T09:57:00;95730.94;;;12.16;72.90
44297;BME280;51842;47.450;8.654;2023-05-19T09:59:27;95723.75;;;12.01;73.51
44297;BME280;51842;47.450;8.654;2023-05-19T10:01:58;95727.69;;;12.35;72.56
44297;BME280;51842;47.450;8.654;2023-05-19T10:04:27;95734.06;;;12.39;72.84
44297;BME280;51842;47.450;8.654;2023-05-19T10:06:56;95734.09;;;12.18;71.43
44297;BME280;51842;47.450;8.654;2023-05-19T10:09:30;95722.34;;;12.35;70.53
44297;BME280;51842;47.450;8.654;2023-05-19T10:11:57;95727.44;;;12.26;71.63
44297;BME280;51842;47.450;8.654;2023-05-19T10:14:28;95722.84;;;12.42;71.80
44297;BME280;51842;47.450;8.654;2023-05-19T10:16:58;95731.16;;;12.25;72.18
44297;BME280;51842;47.450;8.654;2023-05-19T10:19:27;95723.16;;;12.25;71.99
44297;BME280;51842;47.450;8.654;2023-05-19T10:21:54;95714.53;;;12.43;72.29
44297;BME280;51842;47.450;8.654;2023-05-19T10:24:20;95715.38;;;12.34;71.85
44297;BME280;51842;47.450;8.654;2023-05-19T10:27:02;95729.53;;;12.39;71.09
44297;BME280;51842;47.450;8.654;2023-05-19T10:29:36;95723.97;;;12.20;71.65
44297;BME280;51842;47.450;8.654;2023-05-19T10:32:13;95727.13;;;12.33;73.31
44297;BME280;51842;47.450;8.654;2023-05-19T10:35:04;95715.13;;;12.30;72.70
44297;BME280;51842;47.450;8.654;2023-05-19T10:47:25;95713.34;;;13.64;67.43
44297;BME280;51842;47.450;8.654;2023-05-19T10:49:55;95709.31;;;13.67;67.79
44297;BME280;51842;47.450;8.654;2023-05-19T10:52:22;95714.84;;;13.41;67.62
44297;BME280;51842;47.450;8.654;2023-05-19T10:54:51;95715.47;;;13.28;69.50
44297;BME280;51842;47.450;8.654;2023-05-19T10:57:26;95715.81;;;13.55;67.75
44297;BME280;51842;47.450;8.654;2023-05-19T11:00:01;95722.06;;;14.04;66.91
44297;BME280;51842;47.450;8.654;2023-05-19T11:02:36;95722.16;;;13.99;67.42
44297;BME280;51842;47.450;8.654;2023-05-19T11:07:35;95719.19;;;13.66;66.84
44297;BME280;51842;47.450;8.654;2023-05-19T11:10:06;95709.13;;;13.87;66.91
44297;BME280;51842;47.450;8.654;2023-05-19T11:12:40;95712.03;;;14.20;65.68
44297;BME280;51842;47.450;8.654;2023-05-19T11:15:15;95706.25;;;13.78;65.76
44297;BME280;51842;47.450;8.654;2023-05-19T11:17:44;95702.41;;;13.89;66.08
44297;BME280;51842;47.450;8.654;2023-05-19T11:20:25;95705.81;;;13.66;66.52
44297;BME280;51842;47.450;8.654;2023-05-19T11:23:16;95713.09;;;14.19;67.32
44297;BME280;51842;47.450;8.654;2023-05-19T11:25:49;95700.34;;;14.34;64.16
44297;BME280;51842;47.450;8.654;2023-05-19T11:28:19;95705.66;;;14.40;65.05
44297;BME280;51842;47.450;8.654;2023-05-19T11:30:48;95698.66;;;14.68;65.09
44297;BME280;51842;47.450;8.654;2023-05-19T11:33:15;95697.97;;;14.57;62.97
44297;BME280;51842;47.450;8.654;2023-05-19T11:35:49;95687.81;;;14.54;63.35
44297;BME280;51842;47.450;8.654;2023-05-19T11:38:19;95687.25;;;14.33;65.35
44297;BME280;51842;47.450;8.654;2023-05-19T11:40:47;95689.72;;;14.72;62.81
44297;BME280;51842;47.450;8.654;2023-05-19T11:43:14;95686.13;;;14.82;63.71
44297;BME280;51842;47.450;8.654;2023-05-19T11:45:41;95690.13;;;15.03;62.19
44297;BME280;51842;47.450;8.654;2023-05-19T11:48:11;95680.63;;;15.30;60.29
44297;BME280;51842;47.450;8.654;2023-05-19T11:50:40;95680.84;;;15.66;59.37
44297;BME280;51842;47.450;8.654;2023-05-19T11:53:06;95676.22;;;15.53;58.67
44297;BME280;51842;47.450;8.654;2023-05-19T11:55:32;95669.34;;;15.47;58.90
44297;BME280;51842;47.450;8.654;2023-05-19T11:58:01;95673.25;;;15.73;58.65
44297;BME280;51842;47.450;8.654;2023-05-19T12:00:29;95676.38;;;16.08;59.55
44297;BME280;51842;47.450;8.654;2023-05-19T12:02:56;95670.03;;;16.46;57.39
44297;BME280;51842;47.450;8.654;2023-05-19T12:05:24;95672.56;;;15.63;59.71
44297;BME280;51842;47.450;8.654;2023-05-19T12:07:51;95671.63;;;16.33;58.17
44297;BME280;51842;47.450;8.654;2023-05-19T12:10:26;95667.19;;;16.92;55.63
44297;BME280;51842;47.450;8.654;2023-05-19T12:12:53;95670.22;;;17.27;54.78
44297;BME280;51842;47.450;8.654;2023-05-19T12:15:21;95671.28;;;17.48;55.54
44297;BME280;51842;47.450;8.654;2023-05-19T12:17:56;95672.03;;;17.85;54.69
44297;BME280;51842;47.450;8.654;2023-05-19T12:20:23;95663.03;;;17.67;54.21
44297;BME280;51842;47.450;8.654;2023-05-19T12:22:50;95657.22;;;17.51;55.59
44297;BME280;51842;47.450;8.654;2023-05-19T12:25:17;95657.63;;;17.36;56.34
44297;BME280;51842;47.450;8.654;2023-05-19T12:27:44;95675.28;;;17.28;53.97
44297;BME280;51842;47.450;8.654;2023-05-19T12:30:11;95668.06;;;17.38;54.56
44297;BME280;51842;47.450;8.654;2023-05-19T12:32:40;95674.88;;;16.57;57.15
44297;BME280;51842;47.450;8.654;2023-05-19T12:35:07;95668.00;;;16.93;57.31
44297;BME280;51842;47.450;8.654;2023-05-19T12:37:33;95662.75;;;16.74;56.57
44297;BME280;51842;47.450;8.654;2023-05-19T12:40:02;95654.88;;;16.77;57.67
44297;BME280;51842;47.450;8.654;2023-05-19T12:42:29;95657.91;;;16.98;57.15
44297;BME280;51842;47.450;8.654;2023-05-19T12:45:01;95657.41;;;17.32;55.38
44297;BME280;51842;47.450;8.654;2023-05-19T12:47:33;95659.44;;;17.49;55.34
44297;BME280;51842;47.450;8.654;2023-05-19T12:50:06;95647.47;;;16.97;57.12
44297;BME280;51842;47.450;8.654;2023-05-19T12:52:47;95660.75;;;16.38;58.40
44297;BME280;51842;47.450;8.654;2023-05-19T12:55:15;95642.34;;;16.59;56.23
44297;BME280;51842;47.450;8.654;2023-05-19T12:57:43;95644.94;;;16.64;58.74
44297;BME280;51842;47.450;8.654;2023-05-19T13:00:15;95646.31;;;16.75;57.10
44297;BME280;51842;47.450;8.654;2023-05-19T13:03:03;95644.63;;;16.10;59.14
44297;BME280;51842;47.450;8.654;2023-05-19T13:05:38;95641.81;;;15.88;60.39
44297;BME280;51842;47.450;8.654;2023-05-19T13:08:09;95638.16;;;15.84;59.91
44297;BME280;51842;47.450;8.654;2023-05-19T13:10:37;95641.25;;;16.05;59.24
44297;BME280;51842;47.450;8.654;2023-05-19T13:13:05;95649.75;;;15.79;59.76
44297;BME280;51842;47.450;8.654;2023-05-19T13:15:38;95643.91;;;15.91;60.74
44297;BME280;51842;47.450;8.654;2023-05-19T13:18:07;95648.09;;;15.83;60.14
44297;BME280;51842;47.450;8.654;2023-05-19T13:20:36;95645.81;;;15.90;60.54
44297;BME280;51842;47.450;8.654;2023-05-19T13:23:03;95641.03;;;16.01;61.16
44297;BME280;51842;47.450;8.654;2023-05-19T13:25:29;95637.56;;;16.01;59.47
44297;BME280;51842;47.450;8.654;2023-05-19T13:27:55;95647.41;;;15.59;61.10
44297;BME280;51842;47.450;8.654;2023-05-19T13:30:23;95641.34;;;16.00;61.45
44297;BME280;51842;47.450;8.654;2023-05-19T13:32:50;95641.06;;;16.15;60.33
44297;BME280;51842;47.450;8.654;2023-05-19T13:35:17;95631.41;;;15.86;61.38
44297;BME280;51842;47.450;8.654;2023-05-19T13:37:43;95642.53;;;15.80;60.61
44297;BME280;51842;47.450;8.654;2023-05-19T13:40:09;95636.13;;;15.76;60.84
44297;BME280;51842;47.450;8.654;2023-05-19T13:42:36;95633.84;;;15.50;60.80
44297;BME280;51842;47.450;8.654;2023-05-19T13:45:03;95629.38;;;15.45;60.79